createdAt,value
2022-09-26T00:01:32.566Z,16.13
2022-09-26T00:04:07.826Z,15.80
2022-09-26T00:06:36.013Z,16.33
2022-09-26T00:09:03.986Z,16.30
2022-09-26T00:11:34.619Z,16.60
2022-09-26T00:14:05.406Z,18.08
2022-09-26T00:16:33.955Z,16.45
2022-09-26T00:19:02.426Z,18.10
2022-09-26T00:21:31.332Z,17.10
2022-09-26T00:24:00.552Z,17.65
2022-09-26T00:26:30.276Z,18.88
2022-09-26T00:29:00.390Z,19.08
2022-09-26T00:31:30.429Z,17.42
2022-09-26T00:33:59.151Z,19.02
2022-09-26T00:36:37.555Z,18.00
2022-09-26T00:39:07.961Z,16.38
2022-09-26T00:41:36.802Z,19.10
2022-09-26T00:44:38.097Z,17.85
2022-09-26T00:47:07.886Z,17.77
2022-09-26T00:49:38.650Z,17.10
2022-09-26T00:52:11.038Z,15.35
2022-09-26T00:54:42.561Z,17.83
2022-09-26T00:57:13.282Z,15.48
2022-09-26T00:59:46.648Z,15.15
2022-09-26T01:02:15.109Z,17.33
2022-09-26T01:04:45.444Z,16.00
2022-09-26T01:07:18.085Z,15.85
2022-09-26T01:09:47.535Z,15.93
2022-09-26T01:12:16.888Z,14.02
2022-09-26T01:14:49.472Z,13.73
2022-09-26T01:17:17.861Z,16.05
2022-09-26T01:20:00.380Z,14.90
2022-09-26T01:22:59.826Z,16.38
2022-09-26T01:25:39.826Z,16.80
2022-09-26T01:28:24.476Z,16.80
2022-09-26T01:31:02.415Z,17.45
2022-09-26T01:33:58.416Z,17.63
2022-09-26T01:36:49.700Z,18.30
2022-09-26T01:39:32.541Z,18.23
2022-09-26T01:42:10.637Z,18.98
2022-09-26T01:44:42.900Z,16.33
2022-09-26T01:47:18.033Z,18.52
2022-09-26T01:49:53.881Z,19.70
2022-09-26T01:52:33.507Z,17.65
2022-09-26T01:55:08.238Z,20.27
2022-09-26T01:57:45.373Z,17.88
2022-09-26T02:00:14.066Z,18.00
2022-09-26T02:02:48.474Z,18.48
2022-09-26T02:05:23.878Z,19.40
2022-09-26T02:07:56.817Z,20.25
2022-09-26T02:10:29.774Z,19.10
2022-09-26T02:13:03.973Z,19.88
2022-09-26T02:15:35.753Z,18.63
2022-09-26T02:18:12.661Z,19.60
2022-09-26T02:20:45.950Z,21.05
2022-09-26T02:23:13.832Z,20.05
2022-09-26T02:25:41.732Z,19.98
2022-09-26T02:28:09.901Z,20.92
2022-09-26T02:30:39.284Z,20.98
2022-09-26T02:33:09.081Z,21.60
2022-09-26T02:35:55.285Z,22.25
2022-09-26T02:38:26.430Z,20.60
2022-09-26T02:41:10.978Z,23.50
2022-09-26T02:43:45.594Z,22.10
2022-09-26T02:46:39.732Z,23.52
2022-09-26T02:49:22.343Z,23.90
2022-09-26T02:52:18.289Z,22.25
2022-09-26T02:54:58.842Z,23.08
2022-09-26T02:57:40.687Z,23.20
2022-09-26T03:00:13.350Z,24.85
2022-09-26T03:02:51.559Z,25.23
2022-09-26T03:05:24.423Z,26.75
2022-09-26T03:07:57.699Z,25.98
2022-09-26T03:10:29.266Z,26.25
2022-09-26T03:13:02.406Z,26.88
2022-09-26T03:15:32.154Z,27.23
2022-09-26T03:18:01.538Z,24.90
2022-09-26T03:20:31.065Z,26.10
2022-09-26T03:22:59.050Z,26.77
2022-09-26T03:25:28.851Z,27.13
2022-09-26T03:28:05.713Z,25.10
2022-09-26T03:30:34.853Z,27.55
2022-09-26T03:33:21.718Z,27.95
2022-09-26T03:35:51.714Z,27.48
2022-09-26T03:38:21.265Z,29.20
2022-09-26T03:40:55.223Z,27.45
2022-09-26T03:43:44.028Z,28.27
2022-09-26T03:46:13.612Z,27.98
2022-09-26T03:48:41.568Z,27.13
2022-09-26T03:51:13.133Z,26.27
2022-09-26T03:53:43.093Z,25.35
2022-09-26T03:56:16.197Z,27.25
2022-09-26T03:58:44.702Z,24.58
2022-09-26T04:01:14.943Z,28.08
2022-09-26T04:03:50.312Z,24.73
2022-09-26T04:06:21.126Z,25.85
2022-09-26T04:08:53.000Z,26.60
2022-09-26T04:11:23.071Z,27.27
2022-09-26T04:13:53.216Z,26.65
2022-09-26T04:16:24.553Z,23.45
2022-09-26T04:19:04.898Z,22.33
2022-09-26T04:21:34.735Z,23.08
2022-09-26T04:24:03.672Z,21.50
2022-09-26T04:26:31.885Z,19.88
2022-09-26T04:29:00.411Z,21.05
2022-09-26T04:31:53.697Z,19.77
2022-09-26T04:34:27.500Z,21.95
2022-09-26T04:36:59.208Z,20.13
2022-09-26T04:39:27.018Z,22.52
2022-09-26T04:41:55.346Z,19.58
2022-09-26T04:44:23.236Z,21.25
2022-09-26T04:46:51.345Z,19.70
2022-09-26T04:49:21.658Z,19.70
2022-09-26T04:51:49.738Z,21.33
2022-09-26T04:54:19.085Z,18.83
2022-09-26T04:56:47.703Z,18.23
2022-09-26T04:59:15.707Z,17.95
2022-09-26T05:01:56.570Z,17.42
2022-09-26T05:04:31.818Z,15.38
2022-09-26T05:07:00.145Z,13.93
2022-09-26T05:09:35.856Z,11.90
2022-09-26T05:12:18.207Z,9.25
2022-09-26T05:14:49.834Z,10.52
2022-09-26T05:17:17.795Z,8.55
2022-09-26T05:19:48.029Z,7.60
2022-09-26T05:22:30.754Z,5.40
2022-09-26T05:25:29.100Z,5.80
2022-09-26T05:27:57.044Z,6.07
2022-09-26T05:30:26.118Z,5.57
2022-09-26T05:32:54.977Z,6.05
2022-09-26T05:35:23.735Z,6.90
2022-09-26T05:37:59.764Z,6.28
2022-09-26T05:40:48.075Z,6.78
2022-09-26T05:43:16.372Z,6.90
2022-09-26T05:45:49.284Z,6.38
2022-09-26T05:48:20.836Z,7.03
2022-09-26T05:50:49.242Z,5.32
2022-09-26T05:53:17.076Z,5.20
2022-09-26T05:55:50.086Z,5.03
2022-09-26T05:58:39.193Z,4.25
2022-09-26T06:01:20.037Z,4.18
2022-09-26T06:03:55.908Z,3.75
2022-09-26T06:06:29.811Z,3.70
2022-09-26T06:09:07.462Z,3.85
2022-09-26T06:11:55.267Z,3.28
2022-09-26T06:14:24.492Z,3.10
2022-09-26T06:16:52.497Z,3.35
2022-09-26T06:19:23.086Z,3.30
2022-09-26T06:21:51.563Z,3.42
2022-09-26T06:24:20.554Z,2.97
2022-09-26T06:26:51.529Z,2.53
2022-09-26T06:29:21.364Z,2.75
2022-09-26T06:31:50.795Z,3.05
2022-09-26T06:34:38.872Z,2.20
2022-09-26T06:37:26.989Z,2.60
2022-09-26T06:39:59.247Z,2.35
2022-09-26T06:42:27.652Z,1.88
2022-09-26T06:45:19.368Z,1.98
2022-09-26T06:48:07.598Z,1.80
2022-09-26T06:50:55.477Z,1.83
2022-09-26T06:53:23.628Z,1.58
2022-09-26T06:55:51.681Z,1.60
2022-09-26T06:58:19.868Z,1.40
2022-09-26T07:01:18.620Z,1.38
2022-09-26T07:04:09.018Z,1.80
2022-09-26T07:06:45.578Z,1.48
2022-09-26T07:09:14.283Z,2.22
2022-09-26T07:12:13.067Z,2.05
2022-09-26T07:14:37.647Z,2.33
2022-09-26T07:17:16.660Z,1.95
2022-09-26T07:19:52.529Z,2.25
2022-09-26T07:22:52.461Z,1.88
2022-09-26T07:25:20.761Z,3.15
2022-09-26T07:27:51.936Z,2.55
2022-09-26T07:30:23.436Z,2.75
2022-09-26T07:33:04.555Z,2.72
2022-09-26T07:35:37.879Z,2.95
2022-09-26T07:38:06.167Z,3.10
2022-09-26T07:40:34.354Z,3.20
2022-09-26T07:43:21.294Z,3.90
2022-09-26T07:46:12.478Z,3.90
2022-09-26T07:49:02.520Z,3.50
2022-09-26T07:51:49.676Z,3.90
2022-09-26T07:54:21.192Z,3.28
2022-09-26T07:56:49.059Z,4.60
2022-09-26T07:59:35.828Z,3.97
2022-09-26T08:02:22.747Z,3.50
2022-09-26T08:04:57.615Z,3.15
2022-09-26T08:07:28.605Z,2.95
2022-09-26T08:10:19.282Z,2.67
2022-09-26T08:13:22.591Z,3.45
2022-09-26T08:16:09.394Z,3.70
2022-09-26T08:18:42.022Z,3.38
2022-09-26T08:21:11.346Z,3.35
2022-09-26T08:23:39.416Z,4.90
2022-09-26T08:26:43.896Z,3.55
2022-09-26T08:29:25.246Z,4.05
2022-09-26T08:31:55.326Z,4.60
2022-09-26T08:34:25.531Z,4.60
2022-09-26T08:37:15.228Z,4.05
2022-09-26T08:40:03.468Z,5.05
2022-09-26T08:43:02.654Z,5.50
2022-09-26T08:46:32.113Z,5.10
2022-09-26T08:50:02.692Z,3.80
2022-09-26T08:52:38.655Z,4.28
2022-09-26T08:55:13.950Z,4.70
2022-09-26T08:57:45.437Z,4.60
2022-09-26T09:00:21.520Z,3.88
2022-09-26T09:03:13.928Z,4.63
2022-09-26T09:05:46.804Z,3.72
2022-09-26T09:08:22.165Z,3.30
2022-09-26T09:11:18.920Z,3.88
2022-09-26T09:14:02.912Z,6.97
2022-09-26T09:17:10.638Z,5.35
2022-09-26T09:20:10.186Z,4.00
2022-09-26T09:23:10.828Z,4.95
2022-09-26T09:25:49.321Z,3.50
2022-09-26T09:28:34.523Z,3.22
2022-09-26T09:31:05.447Z,3.85
2022-09-26T09:33:57.522Z,4.00
2022-09-26T09:36:42.941Z,4.53
2022-09-26T09:39:34.351Z,4.80
2022-09-26T09:42:11.182Z,5.20
2022-09-26T09:44:47.006Z,5.60
2022-09-26T09:47:17.366Z,5.43
2022-09-26T09:49:47.800Z,5.07
2022-09-26T09:52:31.704Z,5.00
2022-09-26T09:55:14.526Z,5.38
2022-09-26T09:57:58.958Z,5.93
2022-09-26T10:00:28.399Z,6.57
2022-09-26T10:03:16.331Z,6.80
2022-09-26T10:05:47.085Z,6.35
2022-09-26T10:08:31.421Z,6.68
2022-09-26T10:11:22.386Z,5.10
2022-09-26T10:14:16.817Z,5.07
2022-09-26T10:17:20.492Z,5.43
2022-09-26T10:19:51.961Z,4.50
2022-09-26T10:22:26.382Z,3.97
2022-09-26T10:25:01.715Z,5.40
2022-09-26T10:27:37.794Z,4.47
2022-09-26T10:30:25.767Z,4.40
2022-09-26T10:32:59.261Z,4.57
2022-09-26T10:35:48.426Z,4.88
2022-09-26T10:38:22.049Z,4.80
2022-09-26T10:41:23.604Z,4.30
2022-09-26T10:43:55.553Z,4.53
2022-09-26T10:46:53.305Z,4.68
2022-09-26T10:49:45.834Z,3.88
2022-09-26T10:52:37.769Z,3.92
2022-09-26T10:55:11.434Z,4.72
2022-09-26T10:57:45.298Z,3.20
2022-09-26T11:00:19.577Z,3.78
2022-09-26T11:02:51.910Z,3.67
2022-09-26T11:05:39.131Z,4.15
2022-09-26T11:08:14.219Z,3.45
2022-09-26T11:11:11.221Z,3.15
2022-09-26T11:13:48.121Z,4.20
2022-09-26T11:16:20.267Z,3.22
2022-09-26T11:19:06.796Z,4.00
2022-09-26T11:21:43.547Z,3.38
2022-09-26T11:24:19.622Z,2.92
2022-09-26T11:26:59.709Z,2.42
2022-09-26T11:29:39.797Z,2.08
2022-09-26T11:32:17.275Z,2.35
2022-09-26T11:35:02.392Z,3.15
2022-09-26T11:38:03.536Z,2.50
2022-09-26T11:40:44.402Z,2.67
2022-09-26T11:43:32.185Z,2.20
2022-09-26T11:46:23.031Z,2.88
2022-09-26T11:49:36.472Z,3.10
2022-09-26T11:52:52.801Z,3.00
2022-09-26T11:55:31.077Z,3.15
2022-09-26T11:58:06.881Z,2.83
2022-09-26T12:00:45.930Z,2.40
2022-09-26T12:03:33.399Z,2.65
2022-09-26T12:06:13.766Z,2.65
2022-09-26T12:09:01.847Z,2.47
2022-09-26T12:11:40.236Z,2.30
2022-09-26T12:14:19.476Z,2.40
2022-09-26T12:16:55.182Z,2.42
2022-09-26T12:19:32.487Z,2.90
2022-09-26T12:22:27.329Z,2.92
2022-09-26T12:25:14.547Z,3.00
2022-09-26T12:27:52.992Z,2.75
2022-09-26T12:30:26.178Z,2.70
2022-09-26T12:33:20.934Z,2.55
2022-09-26T12:35:54.085Z,2.78
2022-09-26T12:38:35.707Z,2.70
2022-09-26T12:41:28.982Z,2.78
2022-09-26T12:44:31.362Z,2.90
2022-09-26T12:47:15.356Z,3.50
2022-09-26T12:49:57.186Z,4.38
2022-09-26T12:52:39.539Z,3.17
2022-09-26T12:55:19.129Z,3.55
2022-09-26T12:58:01.735Z,3.17
2022-09-26T13:00:36.917Z,3.45
2022-09-26T13:03:42.761Z,3.30
2022-09-26T13:06:31.591Z,3.00
2022-09-26T13:09:11.275Z,3.42
2022-09-26T13:11:50.801Z,3.50
2022-09-26T13:14:39.553Z,3.72
2022-09-26T13:17:13.880Z,3.10
2022-09-26T13:19:48.653Z,4.20
2022-09-26T13:22:27.368Z,3.17
2022-09-26T13:25:03.388Z,3.60
2022-09-26T13:27:38.389Z,3.65
2022-09-26T13:30:16.925Z,3.00
2022-09-26T13:32:54.993Z,2.78
2022-09-26T13:35:24.836Z,2.97
2022-09-26T13:38:30.381Z,3.22
2022-09-26T13:41:05.081Z,3.40
2022-09-26T13:43:47.558Z,3.70
2022-09-26T13:46:27.121Z,3.55
2022-09-26T13:49:01.285Z,3.35
2022-09-26T13:51:40.123Z,3.08
2022-09-26T13:54:19.932Z,3.40
2022-09-26T13:56:49.665Z,4.10
2022-09-26T13:59:48.893Z,3.33
2022-09-26T14:02:25.017Z,3.58
2022-09-26T14:04:54.283Z,3.25
2022-09-26T14:07:45.057Z,3.40
2022-09-26T14:10:35.305Z,4.10
2022-09-26T14:13:18.285Z,3.17
2022-09-26T14:16:03.771Z,3.40
2022-09-26T14:18:47.284Z,3.50
2022-09-26T14:21:32.938Z,3.90
2022-09-26T14:24:27.782Z,3.67
2022-09-26T14:27:03.489Z,4.57
2022-09-26T14:29:44.663Z,4.30
2022-09-26T14:32:17.924Z,4.80
2022-09-26T14:34:49.353Z,5.28
2022-09-26T14:37:31.238Z,5.05
2022-09-26T14:40:16.193Z,3.80
2022-09-26T14:42:51.826Z,3.90
2022-09-26T14:45:24.516Z,4.35
2022-09-26T14:48:01.251Z,3.72
2022-09-26T14:50:34.492Z,3.97
2022-09-26T14:53:11.396Z,3.90
2022-09-26T14:55:54.359Z,4.20
2022-09-26T14:58:31.923Z,3.63
2022-09-26T15:01:05.033Z,4.20
2022-09-26T15:03:35.025Z,3.97
2022-09-26T15:06:08.906Z,4.35
2022-09-26T15:08:39.352Z,4.10
2022-09-26T15:11:08.108Z,4.38
2022-09-26T15:13:39.373Z,4.18
2022-09-26T15:16:24.611Z,4.15
2022-09-26T15:18:56.914Z,4.10
2022-09-26T15:21:33.029Z,3.97
2022-09-26T15:24:04.059Z,4.80
2022-09-26T15:26:34.511Z,4.55
2022-09-26T15:29:06.439Z,4.65
2022-09-26T15:31:40.502Z,4.95
2022-09-26T15:34:16.376Z,4.65
2022-09-26T15:36:48.876Z,5.60
2022-09-26T15:39:39.017Z,4.72
2022-09-26T15:42:48.042Z,4.32
2022-09-26T15:45:29.969Z,4.30
2022-09-26T15:47:59.850Z,4.45
2022-09-26T15:50:32.571Z,4.15
2022-09-26T15:53:08.111Z,4.40
2022-09-26T15:55:40.568Z,4.28
2022-09-26T15:58:10.885Z,5.25
2022-09-26T16:00:43.190Z,4.38
2022-09-26T16:03:37.126Z,3.97
2022-09-26T16:06:14.564Z,4.40
2022-09-26T16:08:43.819Z,4.88
2022-09-26T16:11:11.708Z,4.50
2022-09-26T16:13:49.170Z,5.28
2022-09-26T16:16:20.007Z,4.70
2022-09-26T16:18:55.251Z,5.28
2022-09-26T16:21:25.809Z,5.13
2022-09-26T16:23:57.779Z,5.40
2022-09-26T16:26:31.955Z,5.00
2022-09-26T16:29:00.734Z,4.80
2022-09-26T16:31:34.431Z,5.90
2022-09-26T16:34:06.953Z,5.40
2022-09-26T16:36:35.634Z,5.25
2022-09-26T16:39:07.398Z,4.88
2022-09-26T16:44:34.910Z,6.05
2022-09-26T16:47:06.124Z,5.63
2022-09-26T16:49:46.098Z,5.60
2022-09-26T16:52:28.449Z,5.75
2022-09-26T16:54:59.255Z,6.10
2022-09-26T16:57:30.120Z,6.75
2022-09-26T17:00:15.059Z,5.80
2022-09-26T17:02:43.383Z,6.82
2022-09-26T17:05:18.405Z,7.55
2022-09-26T17:07:47.800Z,7.85
2022-09-26T17:10:18.307Z,6.43
2022-09-26T17:12:50.729Z,6.25
2022-09-26T17:15:23.181Z,6.22
2022-09-26T17:17:53.696Z,5.80
2022-09-26T17:20:22.532Z,6.18
2022-09-26T17:22:50.356Z,6.32
2022-09-26T17:25:19.960Z,5.43
2022-09-26T17:27:53.188Z,5.72
2022-09-26T17:30:21.565Z,6.45
2022-09-26T17:32:52.729Z,5.90
2022-09-26T17:35:25.882Z,6.25
2022-09-26T17:37:53.913Z,6.22
2022-09-26T17:40:25.122Z,5.32
2022-09-26T17:42:55.445Z,7.40
2022-09-26T17:45:28.601Z,8.45
2022-09-26T17:47:58.817Z,9.80
2022-09-26T17:50:29.892Z,9.63
2022-09-26T17:52:58.887Z,8.88
2022-09-26T17:55:29.216Z,9.10
2022-09-26T17:57:58.379Z,8.60
2022-09-26T18:00:26.688Z,9.52
2022-09-26T18:02:59.709Z,8.70
2022-09-26T18:05:31.684Z,7.68
2022-09-26T18:08:02.645Z,8.07
2022-09-26T18:10:34.467Z,6.28
2022-09-26T18:13:12.098Z,5.15
2022-09-26T18:15:41.588Z,5.45
2022-09-26T18:18:14.345Z,5.97
2022-09-26T18:20:42.300Z,5.65
2022-09-26T18:23:15.735Z,5.43
2022-09-26T18:25:47.107Z,5.40
2022-09-26T18:28:17.318Z,5.35
2022-09-26T18:30:48.265Z,4.95
2022-09-26T18:33:19.301Z,4.78
2022-09-26T18:35:49.260Z,4.63
2022-09-26T18:38:17.527Z,4.65
2022-09-26T18:40:51.754Z,4.82
2022-09-26T18:43:22.466Z,4.28
2022-09-26T18:45:50.988Z,5.03
2022-09-26T18:48:24.093Z,4.13
2022-09-26T18:50:54.070Z,5.18
2022-09-26T18:53:23.906Z,3.90
2022-09-26T18:56:11.061Z,5.15
2022-09-26T18:58:39.530Z,5.80
2022-09-26T19:01:12.047Z,6.30
2022-09-26T19:03:42.443Z,7.32
2022-09-26T19:06:16.086Z,5.72
2022-09-26T19:08:46.008Z,6.07
2022-09-26T19:11:17.985Z,6.88
2022-09-26T19:13:47.964Z,5.75
2022-09-26T19:16:16.674Z,5.30
2022-09-26T19:18:45.254Z,6.13
2022-09-26T19:21:21.083Z,5.63
2022-09-26T19:23:50.458Z,4.68
2022-09-26T19:26:27.456Z,4.57
2022-09-26T19:28:57.824Z,5.13
2022-09-26T19:31:26.347Z,4.30
2022-09-26T19:33:54.686Z,5.15
2022-09-26T19:36:22.973Z,4.53
2022-09-26T19:38:50.876Z,6.07
2022-09-26T19:41:18.943Z,4.18
2022-09-26T19:43:48.141Z,4.47
2022-09-26T19:46:23.123Z,4.47
2022-09-26T19:48:51.478Z,4.68
2022-09-26T19:51:19.388Z,4.25
2022-09-26T19:53:47.212Z,4.00
2022-09-26T19:56:15.117Z,3.85
2022-09-26T19:58:46.262Z,4.10
2022-09-26T20:01:19.162Z,4.30
2022-09-26T20:03:47.239Z,3.70
2022-09-26T20:06:18.176Z,4.22
2022-09-26T20:08:46.046Z,3.65
2022-09-26T20:11:13.890Z,3.38
2022-09-26T20:13:59.661Z,3.83
2022-09-26T20:16:29.254Z,3.00
2022-09-26T20:18:58.035Z,3.90
2022-09-26T20:21:28.547Z,2.83
2022-09-26T20:23:59.112Z,3.15
2022-09-26T20:26:29.507Z,3.10
2022-09-26T20:28:58.468Z,3.45
2022-09-26T20:31:28.151Z,3.75
2022-09-26T20:33:59.224Z,3.47
2022-09-26T20:36:29.910Z,3.67
2022-09-26T20:39:02.729Z,3.10
2022-09-26T20:41:34.063Z,3.80
2022-09-26T20:44:05.839Z,3.83
2022-09-26T20:46:36.836Z,3.55
2022-09-26T20:49:08.709Z,3.08
2022-09-26T20:51:36.660Z,3.60
2022-09-26T20:54:06.647Z,2.85
2022-09-26T20:56:34.700Z,4.00
2022-09-26T20:59:02.565Z,4.03
2022-09-26T21:01:30.436Z,3.63
2022-09-26T21:03:58.635Z,3.83
2022-09-26T21:06:33.968Z,4.13
2022-09-26T21:09:02.670Z,2.90
2022-09-26T21:11:30.516Z,4.15
2022-09-26T21:13:58.434Z,6.65
2022-09-26T21:16:26.977Z,3.88
2022-09-26T21:18:55.127Z,4.15
2022-09-26T21:21:25.415Z,3.65
2022-09-26T21:24:06.949Z,3.95
2022-09-26T21:26:34.805Z,3.58
2022-09-26T21:29:03.904Z,4.22
2022-09-26T21:31:35.313Z,4.30
2022-09-26T21:34:03.942Z,4.50
2022-09-26T21:36:36.312Z,4.60
2022-09-26T21:39:06.177Z,3.97
2022-09-26T21:41:34.756Z,4.15
2022-09-26T21:44:09.023Z,4.25
2022-09-26T21:46:36.871Z,4.40
2022-09-26T21:49:04.860Z,5.30
2022-09-26T21:51:32.993Z,4.38
2022-09-26T21:54:05.611Z,3.67
2022-09-26T21:56:38.815Z,3.30
2022-09-26T21:59:07.958Z,4.05
2022-09-26T22:01:35.842Z,3.83
2022-09-26T22:04:03.664Z,3.72
2022-09-26T22:06:31.668Z,6.95
2022-09-26T22:08:59.567Z,6.60
2022-09-26T22:11:27.470Z,4.88
2022-09-26T22:13:56.695Z,7.88
2022-09-26T22:16:25.396Z,5.30
2022-09-26T22:18:53.217Z,5.97
2022-09-26T22:21:21.138Z,5.13
2022-09-26T22:23:50.456Z,4.95
2022-09-26T22:26:18.847Z,5.40
2022-09-26T22:28:46.852Z,6.03
2022-09-26T22:31:20.027Z,5.05
2022-09-26T22:33:48.043Z,4.90
2022-09-26T22:36:16.321Z,6.57
2022-09-26T22:38:45.187Z,4.93
2022-09-26T22:41:13.080Z,4.28
2022-09-26T22:43:40.944Z,4.50
2022-09-26T22:46:10.406Z,4.38
2022-09-26T22:48:41.866Z,4.15
2022-09-26T22:51:10.646Z,4.55
2022-09-26T22:53:40.222Z,4.22
2022-09-26T22:56:08.678Z,4.10
2022-09-26T22:58:40.547Z,4.05
2022-09-26T23:01:10.580Z,4.00
2022-09-26T23:03:40.745Z,4.38
2022-09-26T23:06:09.476Z,4.50
2022-09-26T23:08:38.005Z,4.90
2022-09-26T23:11:07.777Z,4.40
2022-09-26T23:13:36.390Z,4.85
2022-09-26T23:16:06.191Z,4.55
2022-09-26T23:18:35.555Z,3.92
2022-09-26T23:21:09.281Z,4.18
2022-09-26T23:23:37.852Z,4.40
2022-09-26T23:26:07.081Z,4.00
2022-09-26T23:28:35.407Z,4.82
2022-09-26T23:31:07.866Z,3.75
2022-09-26T23:33:36.282Z,4.13
2022-09-26T23:36:05.439Z,4.47
2022-09-26T23:38:36.169Z,3.40
2022-09-26T23:41:05.080Z,4.15
2022-09-26T23:43:32.903Z,4.60
2022-09-26T23:46:01.073Z,3.70
2022-09-26T23:48:29.019Z,4.00
2022-09-26T23:50:57.716Z,4.30
2022-09-26T23:53:25.818Z,4.07
2022-09-26T23:56:03.828Z,4.38
2022-09-26T23:58:31.676Z,3.50
